createdAt,value
2023-01-19T00:02:21.815Z,1.40
2023-01-19T00:04:51.519Z,1.20
2023-01-19T00:07:20.721Z,1.52
2023-01-19T00:09:52.935Z,1.42
2023-01-19T00:12:22.046Z,1.20
2023-01-19T00:14:54.111Z,1.50
2023-01-19T00:17:23.158Z,1.00
2023-01-19T00:19:52.162Z,1.10
2023-01-19T00:22:21.216Z,1.10
2023-01-19T00:24:51.941Z,1.20
2023-01-19T00:27:24.760Z,1.17
2023-01-19T00:29:58.215Z,1.20
2023-01-19T00:32:27.887Z,1.30
2023-01-19T00:34:56.976Z,1.20
2023-01-19T00:37:25.905Z,1.40
2023-01-19T00:39:54.906Z,1.40
2023-01-19T00:42:41.936Z,1.20
2023-01-19T00:45:17.658Z,1.25
2023-01-19T00:47:47.481Z,1.05
2023-01-19T00:50:18.604Z,1.25
2023-01-19T00:52:48.222Z,1.30
2023-01-19T00:55:25.936Z,1.27
2023-01-19T00:57:56.253Z,1.40
2023-01-19T01:00:32.024Z,1.10
2023-01-19T01:07:24.287Z,0.90
2023-01-19T01:09:53.407Z,1.10
2023-01-19T01:12:22.855Z,0.80
2023-01-19T01:14:54.868Z,1.00
2023-01-19T01:17:27.815Z,1.10
2023-01-19T01:19:57.592Z,0.90
2023-01-19T01:22:26.662Z,1.23
2023-01-19T01:24:55.646Z,1.23
2023-01-19T01:27:38.826Z,0.98
2023-01-19T01:30:26.400Z,1.23
2023-01-19T01:35:35.105Z,1.30
2023-01-19T01:38:06.192Z,1.30
2023-01-19T01:40:35.579Z,1.20
2023-01-19T01:43:15.470Z,1.30
2023-01-19T01:45:45.597Z,1.45
2023-01-19T01:48:23.188Z,1.30
2023-01-19T01:51:19.982Z,1.45
2023-01-19T01:53:55.903Z,1.30
2023-01-19T01:56:35.991Z,1.23
2023-01-19T01:59:12.661Z,1.33
2023-01-19T02:02:00.385Z,1.35
2023-01-19T02:04:31.708Z,0.70
2023-01-19T02:07:19.123Z,0.60
2023-01-19T02:10:13.708Z,0.60
2023-01-19T02:17:36.890Z,0.57
2023-01-19T02:20:27.772Z,0.60
2023-01-19T02:30:06.660Z,1.73
2023-01-19T02:32:42.200Z,1.70
2023-01-19T02:35:13.150Z,1.60
2023-01-19T02:37:53.898Z,1.30
2023-01-19T02:40:55.891Z,1.00
2023-01-19T02:43:26.175Z,1.38
2023-01-19T02:45:55.464Z,1.48
2023-01-19T02:48:24.476Z,1.48
2023-01-19T02:51:00.388Z,3.50
2023-01-19T02:53:55.547Z,2.70
2023-01-19T02:56:57.750Z,1.60
2023-01-19T02:59:36.515Z,1.30
2023-01-19T03:02:24.845Z,0.88
2023-01-19T03:05:15.375Z,0.80
2023-01-19T03:08:09.456Z,0.75
2023-01-19T03:10:59.544Z,0.90
2023-01-19T03:13:46.668Z,1.15
2023-01-19T03:17:03.405Z,0.90
2023-01-19T03:19:44.811Z,1.25
2023-01-19T03:22:31.875Z,0.95
2023-01-19T03:25:04.822Z,3.33
2023-01-19T03:27:44.205Z,1.55
2023-01-19T03:30:21.627Z,2.25
2023-01-19T03:32:55.630Z,2.40
2023-01-19T03:35:51.620Z,1.90
2023-01-19T03:39:01.112Z,1.42
2023-01-19T03:41:48.090Z,1.80
2023-01-19T03:44:18.180Z,1.48
2023-01-19T03:46:48.951Z,1.30
2023-01-19T03:49:23.174Z,1.10
2023-01-19T03:51:57.689Z,0.93
2023-01-19T03:54:29.253Z,1.02
2023-01-19T03:57:05.005Z,1.35
2023-01-19T04:00:20.195Z,1.40
2023-01-19T04:02:49.335Z,1.02
2023-01-19T04:05:18.335Z,1.00
2023-01-19T04:07:51.676Z,0.80
2023-01-19T04:10:21.613Z,0.90
2023-01-19T04:12:50.809Z,1.30
2023-01-19T04:15:20.585Z,1.70
2023-01-19T04:17:49.704Z,0.80
2023-01-19T04:20:19.260Z,1.02
2023-01-19T04:22:50.037Z,1.20
2023-01-19T04:25:19.605Z,3.33
2023-01-19T04:27:54.209Z,3.47
2023-01-19T04:30:24.798Z,2.40
2023-01-19T04:32:57.144Z,1.58
2023-01-19T04:35:29.617Z,1.00
2023-01-19T04:37:58.750Z,0.90
2023-01-19T04:40:30.938Z,1.00
2023-01-19T04:43:02.941Z,1.05
2023-01-19T04:45:35.742Z,1.42
2023-01-19T04:48:06.608Z,1.40
2023-01-19T04:50:36.581Z,1.10
2023-01-19T04:53:06.214Z,1.15
2023-01-19T04:55:35.593Z,1.27
2023-01-19T04:58:04.554Z,1.80
2023-01-19T05:00:34.648Z,1.15
2023-01-19T05:03:04.136Z,1.08
2023-01-19T05:05:34.067Z,1.00
2023-01-19T05:08:03.263Z,1.30
2023-01-19T05:10:32.540Z,1.08
2023-01-19T05:13:01.942Z,1.40
2023-01-19T05:15:31.240Z,1.50
2023-01-19T05:18:00.253Z,1.85
2023-01-19T05:20:29.447Z,1.45
2023-01-19T05:22:58.912Z,1.88
2023-01-19T05:25:28.022Z,2.03
2023-01-19T05:27:56.996Z,2.10
2023-01-19T05:30:26.040Z,2.50
2023-01-19T05:32:55.416Z,2.30
2023-01-19T05:35:35.627Z,3.60
2023-01-19T05:38:05.586Z,3.78
2023-01-19T05:40:35.605Z,1.77
2023-01-19T05:43:05.797Z,2.13
2023-01-19T05:45:35.460Z,2.08
2023-01-19T05:48:04.489Z,2.10
2023-01-19T05:50:34.180Z,2.92
2023-01-19T05:53:05.945Z,3.00
2023-01-19T05:55:35.040Z,2.97
2023-01-19T05:58:04.620Z,4.15
2023-01-19T06:00:33.586Z,3.65
2023-01-19T06:03:03.252Z,3.13
2023-01-19T06:05:32.763Z,1.70
2023-01-19T06:08:01.817Z,2.20
2023-01-19T06:10:31.268Z,2.50
2023-01-19T06:13:01.426Z,2.10
2023-01-19T06:15:30.703Z,2.17
2023-01-19T06:17:59.652Z,2.83
2023-01-19T06:20:28.688Z,2.67
2023-01-19T06:23:00.988Z,1.98
2023-01-19T06:25:30.454Z,2.17
2023-01-19T06:27:59.859Z,2.47
2023-01-19T06:30:29.908Z,1.90
2023-01-19T06:32:59.157Z,1.73
2023-01-19T06:35:28.213Z,1.58
2023-01-19T06:37:57.185Z,1.80
2023-01-19T06:40:26.417Z,1.70
2023-01-19T06:42:55.371Z,1.13
2023-01-19T06:45:26.786Z,1.10
2023-01-19T06:47:55.899Z,1.35
2023-01-19T06:50:24.840Z,1.10
2023-01-19T06:52:54.261Z,1.20
2023-01-19T06:55:23.337Z,1.00
2023-01-19T06:57:59.575Z,1.25
2023-01-19T07:00:30.568Z,1.23
2023-01-19T07:03:00.006Z,1.08
2023-01-19T07:05:29.756Z,1.98
2023-01-19T07:07:59.150Z,1.40
2023-01-19T07:11:26.784Z,1.67
2023-01-19T07:13:18.069Z,1.48
2023-01-19T07:15:47.340Z,1.63
2023-01-19T07:18:16.373Z,1.50
2023-01-19T07:20:47.632Z,2.17
2023-01-19T07:23:17.595Z,1.80
2023-01-19T07:25:50.349Z,2.17
2023-01-19T07:28:19.972Z,2.17
2023-01-19T07:30:53.539Z,1.40
2023-01-19T07:33:25.262Z,1.40
2023-01-19T07:35:55.283Z,0.82
2023-01-19T07:38:25.919Z,1.33
2023-01-19T07:41:02.513Z,1.52
2023-01-19T07:43:33.275Z,0.90
2023-01-19T07:46:04.350Z,1.00
2023-01-19T07:48:33.709Z,1.05
2023-01-19T07:51:06.394Z,1.00
2023-01-19T07:53:35.548Z,1.08
2023-01-19T07:56:06.918Z,1.20
2023-01-19T07:58:36.048Z,1.10
2023-01-19T08:01:10.482Z,1.10
2023-01-19T08:03:40.355Z,1.10
2023-01-19T08:06:18.827Z,1.23
2023-01-19T08:08:47.804Z,1.00
2023-01-19T08:11:16.966Z,1.30
2023-01-19T08:13:46.462Z,1.30
2023-01-19T08:16:15.414Z,1.00
2023-01-19T08:18:47.747Z,1.42
2023-01-19T08:21:20.108Z,1.45
2023-01-19T08:23:57.041Z,1.33
2023-01-19T08:26:33.805Z,1.13
2023-01-19T08:31:39.167Z,0.98
2023-01-19T08:34:09.158Z,0.85
2023-01-19T08:36:38.265Z,1.00
2023-01-19T08:39:07.688Z,0.70
2023-01-19T08:41:36.779Z,0.90
2023-01-19T08:44:06.140Z,1.05
2023-01-19T08:46:35.173Z,1.20
2023-01-19T08:49:07.546Z,1.02
2023-01-19T08:51:36.891Z,1.30
2023-01-19T08:54:06.302Z,1.30
2023-01-19T08:56:35.591Z,1.50
2023-01-19T08:59:09.943Z,0.90
2023-01-19T09:01:40.440Z,1.13
2023-01-19T09:04:18.649Z,0.70
2023-01-19T09:06:50.540Z,0.90
2023-01-19T09:09:19.591Z,0.90
2023-01-19T09:11:54.728Z,0.90
2023-01-19T09:14:26.309Z,0.90
2023-01-19T09:16:57.396Z,0.75
2023-01-19T09:19:29.174Z,0.90
2023-01-19T09:21:59.990Z,0.60
2023-01-19T09:24:31.772Z,1.02
2023-01-19T09:27:01.880Z,0.60
2023-01-19T09:29:31.557Z,0.70
2023-01-19T09:32:00.699Z,1.25
2023-01-19T09:34:29.890Z,1.27
2023-01-19T09:37:04.656Z,1.45
2023-01-19T09:39:33.645Z,1.40
2023-01-19T09:42:25.541Z,1.30
2023-01-19T09:44:55.451Z,1.95
2023-01-19T09:47:30.781Z,1.88
2023-01-19T09:50:06.651Z,1.75
2023-01-19T09:52:38.597Z,1.17
2023-01-19T09:55:24.089Z,0.90
2023-01-19T09:57:57.374Z,1.15
2023-01-19T10:00:29.456Z,1.00
2023-01-19T10:03:11.435Z,1.27
2023-01-19T10:06:04.799Z,1.20
2023-01-19T10:08:48.116Z,1.15
2023-01-19T10:11:51.538Z,0.88
2023-01-19T10:15:12.240Z,0.90
2023-01-19T10:18:02.823Z,1.00
2023-01-19T10:20:38.511Z,1.00
2023-01-19T10:23:24.648Z,1.00
2023-01-19T10:25:55.075Z,1.15
2023-01-19T10:28:27.725Z,0.85
2023-01-19T10:30:57.191Z,0.90
2023-01-19T10:33:26.319Z,0.80
2023-01-19T10:35:55.367Z,0.90
2023-01-19T10:38:24.360Z,0.90
2023-01-19T10:41:33.659Z,0.90
2023-01-19T10:44:05.167Z,0.98
2023-01-19T10:46:51.511Z,0.77
2023-01-19T10:49:32.127Z,0.90
2023-01-19T10:52:01.667Z,0.98
2023-01-19T10:54:33.526Z,0.98
2023-01-19T10:57:11.360Z,1.05
2023-01-19T10:59:46.033Z,1.05
2023-01-19T11:02:33.745Z,0.80
2023-01-19T11:05:26.508Z,0.90
2023-01-19T11:07:56.127Z,0.90
2023-01-19T11:10:27.936Z,0.82
2023-01-19T11:13:02.097Z,0.90
2023-01-19T11:15:41.365Z,1.13
2023-01-19T11:18:23.897Z,1.20
2023-01-19T11:20:55.527Z,1.35
2023-01-19T11:23:30.577Z,1.23
2023-01-19T11:26:06.340Z,1.30
2023-01-19T11:28:37.312Z,0.90
2023-01-19T11:31:12.388Z,0.85
2023-01-19T11:33:53.827Z,0.98
2023-01-19T11:36:26.294Z,0.80
2023-01-19T11:39:25.606Z,0.88
2023-01-19T11:42:01.060Z,0.80
2023-01-19T11:44:45.960Z,0.90
2023-01-19T11:47:41.742Z,0.77
2023-01-19T11:50:17.005Z,0.80
2023-01-19T11:53:17.352Z,1.08
2023-01-19T11:56:00.702Z,1.25
2023-01-19T11:58:31.349Z,1.65
2023-01-19T12:01:07.394Z,1.25
2023-01-19T12:03:43.454Z,1.60
2023-01-19T12:06:22.671Z,1.38
2023-01-19T12:08:57.722Z,1.13
2023-01-19T12:11:33.369Z,0.80
2023-01-19T12:14:03.284Z,1.70
2023-01-19T12:16:35.851Z,0.95
2023-01-19T12:19:55.000Z,0.80
2023-01-19T12:22:25.396Z,1.50
2023-01-19T12:25:04.913Z,1.40
2023-01-19T12:27:36.557Z,1.10
2023-01-19T12:30:07.347Z,0.80
2023-01-19T12:32:40.460Z,1.27
2023-01-19T12:35:29.793Z,1.27
2023-01-19T12:37:58.935Z,1.00
2023-01-19T12:40:29.992Z,0.90
2023-01-19T12:43:09.435Z,1.33
2023-01-19T12:45:40.636Z,1.30
2023-01-19T12:48:26.199Z,1.00
2023-01-19T12:50:55.135Z,1.00
2023-01-19T12:53:24.165Z,1.00
2023-01-19T12:56:01.844Z,1.48
2023-01-19T12:58:31.181Z,1.40
2023-01-19T13:01:22.471Z,1.42
2023-01-19T13:04:34.984Z,1.60
2023-01-19T13:07:06.715Z,1.42
2023-01-19T13:09:37.815Z,1.40
2023-01-19T13:12:16.109Z,1.65
2023-01-19T13:14:48.570Z,1.50
2023-01-19T13:17:48.977Z,1.50
2023-01-19T13:20:23.969Z,1.58
2023-01-19T13:23:20.725Z,3.10
2023-01-19T13:25:59.889Z,1.90
2023-01-19T13:28:40.890Z,1.52
2023-01-19T13:31:10.924Z,1.80
2023-01-19T13:33:49.095Z,2.38
2023-01-19T13:36:24.049Z,1.88
2023-01-19T13:38:57.902Z,1.60
2023-01-19T13:41:30.584Z,1.50
2023-01-19T13:44:08.497Z,1.67
2023-01-19T13:46:39.461Z,1.92
2023-01-19T13:49:29.721Z,2.75
2023-01-19T13:52:14.699Z,3.75
2023-01-19T13:54:54.965Z,2.72
2023-01-19T13:57:28.971Z,2.80
2023-01-19T14:00:13.555Z,3.00
2023-01-19T14:03:00.190Z,3.35
2023-01-19T14:05:31.171Z,2.85
2023-01-19T14:08:12.429Z,2.60
2023-01-19T14:11:04.583Z,2.58
2023-01-19T14:13:37.952Z,2.22
2023-01-19T14:16:13.423Z,2.40
2023-01-19T14:18:42.945Z,2.28
2023-01-19T14:21:14.485Z,2.90
2023-01-19T14:23:50.204Z,2.47
2023-01-19T14:26:39.185Z,2.70
2023-01-19T14:29:38.229Z,2.40
2023-01-19T14:32:21.792Z,3.08
2023-01-19T14:35:15.718Z,2.90
2023-01-19T14:37:50.501Z,3.10
2023-01-19T14:40:25.230Z,3.05
2023-01-19T14:43:07.015Z,3.03
2023-01-19T14:45:40.237Z,2.88
2023-01-19T14:48:21.948Z,4.05
2023-01-19T14:51:02.689Z,6.07
2023-01-19T14:53:39.146Z,6.30
2023-01-19T14:56:11.433Z,3.75
2023-01-19T14:58:42.420Z,3.10
2023-01-19T15:01:11.676Z,2.00
2023-01-19T15:03:45.393Z,2.55
2023-01-19T15:06:17.804Z,2.40
2023-01-19T15:08:48.128Z,2.50
2023-01-19T15:11:27.749Z,3.63
2023-01-19T15:13:58.745Z,3.40
2023-01-19T15:16:30.645Z,3.83
2023-01-19T15:19:00.238Z,3.45
2023-01-19T15:21:29.289Z,3.28
2023-01-19T15:23:59.259Z,2.92
2023-01-19T15:26:28.783Z,3.47
2023-01-19T15:28:57.778Z,3.53
2023-01-19T15:31:27.565Z,3.67
2023-01-19T15:33:56.946Z,3.20
2023-01-19T15:36:25.982Z,3.03
2023-01-19T15:38:55.163Z,2.55
2023-01-19T15:41:27.829Z,3.10
2023-01-19T15:43:57.184Z,3.30
2023-01-19T15:46:29.299Z,3.47
2023-01-19T15:48:59.161Z,4.05
2023-01-19T15:51:31.034Z,7.72
2023-01-19T15:54:01.217Z,7.30
2023-01-19T15:56:32.318Z,7.35
2023-01-19T15:59:02.889Z,6.25
2023-01-19T16:01:35.897Z,4.30
2023-01-19T16:04:07.966Z,3.78
2023-01-19T16:06:37.179Z,2.63
2023-01-19T16:09:06.365Z,2.53
2023-01-19T16:11:36.352Z,2.22
2023-01-19T16:14:13.963Z,2.10
2023-01-19T16:17:00.500Z,2.72
2023-01-19T16:19:31.093Z,3.00
2023-01-19T16:22:06.139Z,5.60
2023-01-19T16:24:38.043Z,24.33
2023-01-19T16:27:10.750Z,19.10
2023-01-19T16:29:39.846Z,13.00
2023-01-19T16:32:08.740Z,6.20
2023-01-19T16:34:40.610Z,5.65
2023-01-19T16:37:09.748Z,4.63
2023-01-19T16:39:38.971Z,3.17
2023-01-19T16:42:17.728Z,2.88
2023-01-19T16:44:46.738Z,2.70
2023-01-19T16:47:18.476Z,3.17
2023-01-19T16:49:47.495Z,4.03
2023-01-19T16:52:16.493Z,3.50
2023-01-19T16:54:45.666Z,3.33
2023-01-19T16:57:15.592Z,4.10
2023-01-19T16:59:48.267Z,3.30
2023-01-19T17:02:18.177Z,3.08
2023-01-19T17:05:08.380Z,3.60
2023-01-19T17:07:37.506Z,3.45
2023-01-19T17:10:07.153Z,3.40
2023-01-19T17:12:36.127Z,3.53
2023-01-19T17:15:08.413Z,4.53
2023-01-19T17:17:37.538Z,5.38
2023-01-19T17:20:07.314Z,5.07
2023-01-19T17:22:36.335Z,4.97
2023-01-19T17:25:05.645Z,5.65
2023-01-19T17:27:37.735Z,10.90
2023-01-19T17:30:07.490Z,8.93
2023-01-19T17:32:39.571Z,5.20
2023-01-19T17:35:08.816Z,5.32
2023-01-19T17:37:37.898Z,5.18
2023-01-19T17:40:07.676Z,5.22
2023-01-19T17:42:41.316Z,5.78
2023-01-19T17:45:11.950Z,5.80
2023-01-19T17:47:41.047Z,5.78
2023-01-19T17:50:10.567Z,4.68
2023-01-19T17:52:39.706Z,5.57
2023-01-19T17:55:09.168Z,5.28
2023-01-19T17:57:38.520Z,4.88
2023-01-19T18:00:08.889Z,4.97
2023-01-19T18:02:44.174Z,5.65
2023-01-19T18:05:15.223Z,5.72
2023-01-19T18:07:44.467Z,5.50
2023-01-19T18:10:17.174Z,5.35
2023-01-19T18:12:46.538Z,5.35
2023-01-19T18:15:16.906Z,5.00
2023-01-19T18:17:49.230Z,4.90
2023-01-19T18:20:18.514Z,5.80
2023-01-19T18:22:47.471Z,5.03
2023-01-19T18:25:16.601Z,4.57
2023-01-19T18:27:45.516Z,4.72
2023-01-19T18:30:15.178Z,5.70
2023-01-19T18:32:44.261Z,4.63
2023-01-19T18:35:13.374Z,4.50
2023-01-19T18:37:45.528Z,4.45
2023-01-19T18:40:15.396Z,4.50
2023-01-19T18:42:46.505Z,5.45
2023-01-19T18:45:18.289Z,4.45
2023-01-19T18:47:47.302Z,4.18
2023-01-19T18:50:19.361Z,4.05
2023-01-19T18:52:52.099Z,4.03
2023-01-19T18:55:21.129Z,4.20
2023-01-19T18:57:50.040Z,4.65
2023-01-19T19:00:19.774Z,3.67
2023-01-19T19:02:48.683Z,3.83
2023-01-19T19:05:17.671Z,3.90
2023-01-19T19:07:46.557Z,3.75
2023-01-19T19:10:15.631Z,3.58
2023-01-19T19:12:44.530Z,4.03
2023-01-19T19:15:19.458Z,3.63
2023-01-19T19:17:48.645Z,3.70
2023-01-19T19:20:18.394Z,3.38
2023-01-19T19:23:22.639Z,3.47
2023-01-19T19:25:55.938Z,3.75
2023-01-19T19:28:50.269Z,3.63
2023-01-19T19:32:10.409Z,3.30
2023-01-19T19:34:39.405Z,2.70
2023-01-19T19:37:08.999Z,3.30
2023-01-19T19:39:39.130Z,3.10
2023-01-19T19:42:08.241Z,2.70
2023-01-19T19:44:37.429Z,2.72
2023-01-19T19:47:06.651Z,2.80
2023-01-19T19:49:35.562Z,2.40
2023-01-19T19:52:04.560Z,2.97
2023-01-19T19:54:33.511Z,2.30
2023-01-19T19:57:02.383Z,3.03
2023-01-19T19:59:31.296Z,2.65
2023-01-19T20:02:00.334Z,2.38
2023-01-19T20:04:29.416Z,2.00
2023-01-19T20:06:59.995Z,1.90
2023-01-19T20:09:29.073Z,2.10
2023-01-19T20:12:00.916Z,2.10
2023-01-19T20:14:29.913Z,2.80
2023-01-19T20:16:58.879Z,3.20
2023-01-19T20:19:32.541Z,2.38
2023-01-19T20:22:04.670Z,1.77
2023-01-19T20:24:33.659Z,1.77
2023-01-19T20:27:05.201Z,2.17
2023-01-19T20:29:36.125Z,1.70
2023-01-19T20:32:05.530Z,2.00
2023-01-19T20:45:36.790Z,1.70
2023-01-19T20:48:08.972Z,1.80
2023-01-19T20:50:40.696Z,1.58
2023-01-19T20:53:09.737Z,1.60
2023-01-19T20:56:20.248Z,1.73
2023-01-19T20:59:02.519Z,1.65
2023-01-19T21:01:32.619Z,1.50
2023-01-19T21:04:01.950Z,1.40
2023-01-19T21:09:08.582Z,1.60
2023-01-19T21:11:41.833Z,1.45
2023-01-19T21:14:16.146Z,1.73
2023-01-19T21:16:59.978Z,1.50
2023-01-19T21:19:29.284Z,1.40
2023-01-19T21:22:00.949Z,1.50
2023-01-19T21:24:30.347Z,1.30
2023-01-19T21:27:00.563Z,1.15
2023-01-19T21:29:32.673Z,1.38
2023-01-19T21:32:03.478Z,1.35
2023-01-19T21:34:35.852Z,1.63
2023-01-19T21:37:24.724Z,1.20
2023-01-19T21:40:10.203Z,1.75
2023-01-19T21:42:40.551Z,1.70
2023-01-19T21:45:15.476Z,1.42
2023-01-19T21:47:44.675Z,1.35
2023-01-19T21:50:15.044Z,1.33
2023-01-19T21:52:47.946Z,1.30
2023-01-19T21:55:17.155Z,1.50
2023-01-19T21:57:46.151Z,1.40
2023-01-19T22:00:15.757Z,1.40
2023-01-19T22:02:49.451Z,1.80
2023-01-19T22:05:36.351Z,1.57
2023-01-19T22:08:11.428Z,1.48
2023-01-19T22:10:40.479Z,1.30
2023-01-19T22:13:10.255Z,1.75
2023-01-19T22:15:39.181Z,3.58
2023-01-19T22:18:08.172Z,1.50
2023-01-19T22:20:37.252Z,1.30
2023-01-19T22:23:06.299Z,2.00
2023-01-19T22:25:37.723Z,1.83
2023-01-19T22:28:06.839Z,1.23
2023-01-19T22:30:36.126Z,1.50
2023-01-19T22:33:05.364Z,1.15
2023-01-19T22:35:34.328Z,1.40
2023-01-19T22:38:05.623Z,1.40
2023-01-19T22:40:34.686Z,1.30
2023-01-19T22:43:04.639Z,1.48
2023-01-19T22:45:33.927Z,1.13
2023-01-19T23:05:48.422Z,1.20
2023-01-19T23:10:13.943Z,1.20
2023-01-19T23:12:43.273Z,1.05
2023-01-19T23:15:35.179Z,1.00
2023-01-19T23:18:07.487Z,1.13
2023-01-19T23:20:37.798Z,1.10
2023-01-19T23:23:07.242Z,1.88
2023-01-19T23:25:37.398Z,1.55
2023-01-19T23:28:06.655Z,1.73
2023-01-19T23:30:38.894Z,1.33
2023-01-19T23:33:08.190Z,1.40
2023-01-19T23:35:37.374Z,1.58
2023-01-19T23:38:07.274Z,1.58
2023-01-19T23:40:40.531Z,1.30
2023-01-19T23:43:09.780Z,1.55
2023-01-19T23:45:39.394Z,1.63
2023-01-19T23:48:16.279Z,1.40
2023-01-19T23:55:02.347Z,1.60
2023-01-19T23:58:41.578Z,1.73
